Time;durP1;ratioP1;P1;durP2;ratioP2;P2;SDS_P1;SDS_P2;PMS_P1;PMS_P2;Temp;Humidity;BMP_temperature;BMP_pressure;BME280_temperature;BME280_humidity;BME280_pressure;Samples;Min_cycle;Max_cycle;Signal;HPM_P1;HPM_P2
2023/09/03 00:01:32;;;;;;;16.27;12.13;;;;;;;11.52;100.00;102751.56;5030913;28;20057;-83
2023/09/03 00:03:57;;;;;;;15.80;12.15;;;;;;;11.53;100.00;102747.09;5032578;28;20179;-82
2023/09/03 00:06:22;;;;;;;13.70;9.95;;;;;;;11.50;100.00;102760.63;5031871;28;20316;-82
2023/09/03 00:08:48;;;;;;;22.50;14.82;;;;;;;11.48;100.00;102760.72;5032450;28;20033;-82
2023/09/03 00:11:15;;;;;;;19.92;13.48;;;;;;;11.46;100.00;102762.63;5032445;28;20033;-82
2023/09/03 00:13:41;;;;;;;23.48;16.13;;;;;;;11.47;100.00;102767.84;5031979;28;20029;-82
2023/09/03 00:16:06;;;;;;;20.77;13.55;;;;;;;11.48;100.00;102771.41;5032380;28;20026;-82
2023/09/03 00:18:32;;;;;;;19.75;12.88;;;;;;;11.47;100.00;102775.00;5031589;28;20473;-82
2023/09/03 00:21:01;;;;;;;23.33;15.18;;;;;;;11.45;100.00;102768.94;5032433;28;20076;-81
2023/09/03 00:23:27;;;;;;;17.52;12.20;;;;;;;11.42;100.00;102753.09;5030655;28;20393;-81
2023/09/03 00:25:53;;;;;;;15.35;10.95;;;;;;;11.40;100.00;102755.88;5032211;28;20037;-81
2023/09/03 00:28:18;;;;;;;14.52;10.88;;;;;;;11.38;100.00;102751.59;5032194;28;20331;-81
2023/09/03 00:30:44;;;;;;;29.75;17.85;;;;;;;11.37;100.00;102739.22;5030486;28;20061;-81
2023/09/03 00:33:09;;;;;;;25.77;17.20;;;;;;;11.39;100.00;102745.31;5032341;28;20040;-81
2023/09/03 00:35:34;;;;;;;25.90;15.98;;;;;;;11.37;100.00;102750.72;5032335;28;20038;-81
2023/09/03 00:38:00;;;;;;;14.45;10.52;;;;;;;11.35;100.00;102749.13;5036251;28;20052;-81
2023/09/03 00:40:25;;;;;;;14.50;10.73;;;;;;;11.32;100.00;102747.50;5035577;28;20029;-81
2023/09/03 00:42:51;;;;;;;19.67;13.50;;;;;;;11.30;100.00;102733.44;5034873;28;20065;-81
2023/09/03 00:45:16;;;;;;;28.77;17.33;;;;;;;11.28;100.00;102730.84;5035982;28;20470;-81
2023/09/03 00:47:42;;;;;;;28.20;17.73;;;;;;;11.28;100.00;102732.66;5033959;28;20034;-81
2023/09/03 00:50:09;;;;;;;18.77;12.90;;;;;;;11.28;100.00;102735.34;5035576;28;20147;-81
2023/09/03 00:52:35;;;;;;;21.10;14.00;;;;;;;11.25;100.00;102738.19;5035439;28;20050;-82
2023/09/03 00:55:01;;;;;;;13.73;10.23;;;;;;;11.23;100.00;102742.78;5035913;28;20033;-81
2023/09/03 00:57:28;;;;;;;19.63;12.50;;;;;;;11.21;100.00;102744.66;5034175;28;20029;-81
2023/09/03 00:59:54;;;;;;;16.40;11.75;;;;;;;11.17;100.00;102741.34;5034732;28;20033;-82
2023/09/03 01:02:21;;;;;;;17.65;12.63;;;;;;;11.17;100.00;102735.16;5035795;28;20112;-82
2023/09/03 01:04:46;;;;;;;23.02;16.00;;;;;;;11.16;100.00;102723.63;5034944;28;20029;-81
2023/09/03 01:07:13;;;;;;;18.10;13.50;;;;;;;11.17;100.00;102714.72;5035761;28;20462;-81
2023/09/03 01:09:40;;;;;;;15.57;11.55;;;;;;;11.15;100.00;102713.97;5035237;28;20075;-81
2023/09/03 01:12:21;;;;;;;27.33;16.83;;;;;;;11.14;100.00;102714.91;5035594;28;20057;-81
2023/09/03 01:15:15;;;;;;;20.20;14.30;;;;;;;11.12;100.00;102724.78;5035005;28;20030;-81
2023/09/03 01:18:01;;;;;;;14.90;11.73;;;;;;;11.10;100.00;102726.69;5031654;28;20460;-81
2023/09/03 01:20:28;;;;;;;21.30;13.25;;;;;;;11.09;100.00;102736.50;5035374;28;20160;-81
2023/09/03 01:23:28;;;;;;;33.22;18.00;;;;;;;11.10;100.00;102737.34;5034604;28;20394;-81
2023/09/03 01:26:01;;;;;;;27.10;18.20;;;;;;;11.10;100.00;102737.34;5033671;28;20096;-81
2023/09/03 01:28:30;;;;;;;28.80;19.83;;;;;;;11.08;100.00;102737.44;5035392;28;20029;-81
2023/09/03 01:31:00;;;;;;;22.75;14.65;;;;;;;11.04;100.00;102741.25;5034528;28;20034;-81
2023/09/03 01:33:27;;;;;;;18.15;12.60;;;;;;;10.99;100.00;102756.66;5035262;28;20029;-82
2023/09/03 01:35:55;;;;;;;20.95;14.38;;;;;;;10.94;100.00;102751.63;5034799;28;20357;-81
2023/09/03 01:38:21;;;;;;;18.30;13.00;;;;;;;10.93;100.00;102759.72;5035013;28;20034;-81
2023/09/03 01:40:57;;;;;;;20.40;14.48;;;;;;;10.91;100.00;102765.16;5033410;28;20029;-81
2023/09/03 01:43:23;;;;;;;17.50;12.05;;;;;;;10.92;100.00;102773.97;5035008;28;20181;-81
2023/09/03 01:46:12;;;;;;;26.35;15.10;;;;;;;10.93;100.00;102775.69;5034003;28;20029;-81
2023/09/03 01:49:02;;;;;;;20.23;13.02;;;;;;;10.96;100.00;102793.28;5034404;28;20029;-81
2023/09/03 01:51:42;;;;;;;25.60;15.82;;;;;;;11.00;100.00;102790.34;5034314;28;20053;-81
2023/09/03 01:54:18;;;;;;;23.10;14.98;;;;;;;11.01;100.00;102789.38;5035113;28;20029;-82
2023/09/03 01:56:52;;;;;;;22.02;13.98;;;;;;;10.99;100.00;102783.31;5034402;28;20538;-81
2023/09/03 01:59:28;;;;;;;26.00;16.65;;;;;;;10.99;100.00;102782.44;5034452;28;20407;-81
2023/09/03 02:01:55;;;;;;;32.53;17.63;;;;;;;11.00;100.00;102777.03;5034200;28;20112;-82
2023/09/03 02:04:20;;;;;;;30.70;16.65;;;;;;;11.02;100.00;102782.28;5034673;28;20029;-82
2023/09/03 02:06:49;;;;;;;30.40;18.67;;;;;;;11.03;100.00;102783.97;5033919;28;20041;-81
2023/09/03 02:09:14;;;;;;;28.73;17.75;;;;;;;11.02;100.00;102780.44;5033265;28;20037;-81
2023/09/03 02:11:40;;;;;;;29.55;17.35;;;;;;;11.02;100.00;102775.13;5033778;28;20037;-82
2023/09/03 02:14:05;;;;;;;27.25;15.68;;;;;;;11.05;100.00;102769.59;5034175;28;20026;-82
2023/09/03 02:16:30;;;;;;;23.40;14.32;;;;;;;11.04;100.00;102780.34;5034179;28;20108;-82
2023/09/03 02:18:56;;;;;;;18.73;12.40;;;;;;;11.04;100.00;102783.03;5033976;28;20040;-81
2023/09/03 02:21:21;;;;;;;22.15;14.30;;;;;;;11.03;100.00;102781.31;5033042;28;20037;-82
2023/09/03 02:23:46;;;;;;;28.27;16.42;;;;;;;11.04;100.00;102775.88;5034117;28;20454;-82
2023/09/03 02:26:12;;;;;;;33.00;17.67;;;;;;;11.05;100.00;102774.09;5034138;28;20517;-82
2023/09/03 02:28:37;;;;;;;23.60;15.20;;;;;;;11.04;100.00;102759.91;5034238;28;20040;-82
2023/09/03 02:31:03;;;;;;;23.90;14.88;;;;;;;11.03;100.00;102757.31;5032440;28;20033;-82
2023/09/03 02:33:29;;;;;;;28.13;16.15;;;;;;;11.01;100.00;102738.78;5034157;28;20167;-82
2023/09/03 02:35:54;;;;;;;32.67;18.35;;;;;;;11.01;100.00;102733.44;5033396;28;20033;-82
2023/09/03 02:38:19;;;;;;;30.08;16.15;;;;;;;10.99;100.00;102724.72;5032695;28;20031;-82
2023/09/03 02:40:45;;;;;;;24.98;16.80;;;;;;;10.94;100.00;102722.34;5033378;28;20029;-82
2023/09/03 02:43:11;;;;;;;21.40;14.15;;;;;;;10.88;100.00;102720.06;5033964;28;20056;-82
2023/09/03 02:45:37;;;;;;;16.38;10.95;;;;;;;10.86;100.00;102721.94;5033638;28;20030;-82
2023/09/03 02:48:02;;;;;;;20.20;11.70;;;;;;;10.85;100.00;102725.56;5033090;28;20044;-82
2023/09/03 02:50:28;;;;;;;19.70;11.27;;;;;;;10.86;100.00;102732.59;5033908;28;20461;-82
2023/09/03 02:52:53;;;;;;;17.30;11.40;;;;;;;10.87;100.00;102736.13;5033208;28;20057;-82
2023/09/03 02:55:18;;;;;;;13.88;9.32;;;;;;;10.87;100.00;102736.13;5032547;28;20045;-83
2023/09/03 02:57:44;;;;;;;19.25;11.75;;;;;;;10.90;100.00;102750.09;5031417;28;20038;-83
2023/09/03 03:00:10;;;;;;;24.73;14.95;;;;;;;10.99;100.00;102737.16;5032049;28;20033;-83
2023/09/03 03:02:35;;;;;;;35.60;18.83;;;;;;;11.06;100.00;102734.03;5033596;28;20053;-83
2023/09/03 03:05:02;;;;;;;34.30;19.30;;;;;;;11.12;100.00;102740.75;5031542;28;20096;-83
2023/09/03 03:07:28;;;;;;;27.92;16.75;;;;;;;11.11;100.00;102760.38;5033605;28;20061;-82
2023/09/03 03:09:53;;;;;;;23.98;14.85;;;;;;;11.09;100.00;102773.81;5033121;28;20075;-82
2023/09/03 03:12:18;;;;;;;26.27;15.45;;;;;;;11.14;100.00;102785.97;5032455;28;20041;-82
2023/09/03 03:14:44;;;;;;;24.55;15.25;;;;;;;11.19;100.00;102779.41;5032439;28;20063;-81
2023/09/03 03:17:10;;;;;;;39.88;19.88;;;;;;;11.24;100.00;102790.63;5031753;28;20121;-81
2023/09/03 03:19:35;;;;;;;37.33;19.38;;;;;;;11.28;100.00;102794.81;5033108;28;20106;-83
2023/09/03 03:22:01;;;;;;;31.98;16.95;;;;;;;11.28;100.00;102801.94;5031572;28;20034;-81
2023/09/03 03:24:26;;;;;;;33.38;18.63;;;;;;;11.26;100.00;102804.72;5032947;28;20030;-81
2023/09/03 03:26:52;;;;;;;31.58;17.77;;;;;;;11.23;100.00;102804.91;5031591;28;20037;-81
2023/09/03 03:29:17;;;;;;;27.70;17.00;;;;;;;11.20;100.00;102801.59;5031936;28;20045;-81
2023/09/03 03:31:43;;;;;;;36.75;19.92;;;;;;;11.21;100.00;102796.16;5015451;28;20112;-83
2023/09/03 03:34:08;;;;;;;44.10;21.10;;;;;;;11.23;100.00;102790.75;5032452;28;20160;-81
2023/09/03 03:36:34;;;;;;;38.28;19.58;;;;;;;11.21;100.00;102785.50;5032754;28;20389;-81
2023/09/03 03:38:59;;;;;;;32.40;18.02;;;;;;;11.17;100.00;102789.31;5032276;28;20470;-81
2023/09/03 03:41:25;;;;;;;29.40;16.65;;;;;;;11.13;100.00;102793.09;5032958;28;20354;-81
2023/09/03 03:43:51;;;;;;;29.85;17.63;;;;;;;11.11;100.00;102789.69;5032396;28;20040;-81
2023/09/03 03:46:19;;;;;;;29.30;16.55;;;;;;;11.11;100.00;102795.00;5031579;28;20040;-81
2023/09/03 03:48:45;;;;;;;33.38;19.65;;;;;;;11.10;100.00;102791.47;5032788;28;20052;-81
2023/09/03 03:51:10;;;;;;;34.60;19.02;;;;;;;11.11;100.00;102795.00;5032177;28;20466;-81
2023/09/03 03:53:36;;;;;;;32.72;17.55;;;;;;;11.12;100.00;102802.03;5031160;28;20061;-81
2023/09/03 03:56:09;;;;;;;46.38;22.25;;;;;;;11.15;100.00;102793.88;5032395;28;20044;-81
2023/09/03 03:58:36;;;;;;;42.72;22.15;;;;;;;11.18;100.00;102791.03;5032598;28;20021;-81
2023/09/03 04:01:23;;;;;;;36.42;20.20;;;;;;;11.18;100.00;102798.16;5031379;28;20457;-81
2023/09/03 04:03:50;;;;;;;41.65;21.65;;;;;;;11.17;100.00;102793.78;5032643;28;20374;-81
2023/09/03 04:06:16;;;;;;;39.88;21.15;;;;;;;11.18;100.00;102808.81;5032318;28;20045;-81
2023/09/03 04:08:43;;;;;;;36.25;19.00;;;;;;;11.17;100.00;102807.97;5032438;28;20034;-81
2023/09/03 04:11:10;;;;;;;42.83;20.98;;;;;;;11.19;100.00;102810.53;5032214;28;20080;-81
2023/09/03 04:13:36;;;;;;;40.63;21.38;;;;;;;11.21;100.00;102798.81;5032254;28;20046;-81
2023/09/03 04:16:16;;;;;;;41.22;20.73;;;;;;;11.23;100.00;102801.41;5030723;28;20029;-81
2023/09/03 04:18:42;;;;;;;35.90;19.77;;;;;;;11.20;100.00;102796.25;5031348;28;20030;-81
2023/09/03 04:21:08;;;;;;;36.53;19.70;;;;;;;11.22;100.00;102787.19;5014411;28;20029;-81
2023/09/03 04:23:33;;;;;;;48.88;23.73;;;;;;;11.27;100.00;102790.44;5032772;28;20492;-81
2023/09/03 04:25:59;;;;;;;44.88;21.58;;;;;;;11.31;100.00;102792.91;5030890;28;20075;-81
2023/09/03 04:28:25;;;;;;;39.05;20.17;;;;;;;11.31;100.00;102800.91;5032447;28;20056;-81
2023/09/03 04:31:04;;;;;;;45.05;20.30;;;;;;;11.32;100.00;102802.63;5032212;28;20112;-80
2023/09/03 04:33:29;;;;;;;43.38;21.90;;;;;;;11.34;100.00;102801.56;5032193;28;20102;-81
2023/09/03 04:36:00;;;;;;;44.22;22.02;;;;;;;11.38;100.00;102796.91;5032573;28;20432;-81
2023/09/03 04:38:27;;;;;;;48.40;22.90;;;;;;;11.38;100.00;102802.25;5032605;28;20056;-82
2023/09/03 04:40:52;;;;;;;50.08;23.50;;;;;;;11.39;100.00;102801.28;5032347;28;20032;-81
2023/09/03 04:43:18;;;;;;;44.67;21.73;;;;;;;11.39;100.00;102803.94;5031916;28;20037;-81
2023/09/03 04:45:48;;;;;;;46.38;21.67;;;;;;;11.37;100.00;102808.50;5032290;28;20446;-81
2023/09/03 04:48:14;;;;;;;45.83;21.63;;;;;;;11.35;100.00;102808.63;5031592;28;20485;-81
2023/09/03 04:50:39;;;;;;;43.75;21.05;;;;;;;11.31;100.00;102799.09;5014587;28;20025;-81
2023/09/03 04:53:05;;;;;;;37.50;19.88;;;;;;;11.26;100.00;102812.72;5031480;28;20504;-81
2023/09/03 04:55:34;;;;;;;38.30;19.67;;;;;;;11.24;100.00;102817.28;5031980;28;20382;-82
2023/09/03 04:58:00;;;;;;;43.10;21.63;;;;;;;11.24;100.00;102822.63;5031839;28;20034;-81
2023/09/03 05:00:25;;;;;;;38.65;20.10;;;;;;;11.25;100.00;102823.47;5032133;28;20365;-82
2023/09/03 05:02:51;;;;;;;43.90;21.05;;;;;;;11.23;100.00;102828.88;5014206;28;20410;-81
2023/09/03 05:05:18;;;;;;;46.42;22.05;;;;;;;11.23;100.00;102815.56;5030419;28;20038;-81
2023/09/03 05:07:43;;;;;;;40.92;20.08;;;;;;;11.22;100.00;102823.66;5032116;28;20371;-82
2023/09/03 05:10:09;;;;;;;39.25;20.55;;;;;;;11.21;100.00;102825.47;5031664;28;20038;-82
2023/09/03 05:12:35;;;;;;;40.03;19.95;;;;;;;11.17;100.00;102826.59;5030457;28;20033;-81
2023/09/03 05:15:00;;;;;;;42.90;20.52;;;;;;;11.15;100.00;102830.31;5014269;28;20041;-82
2023/09/03 05:17:26;;;;;;;39.83;18.85;;;;;;;11.17;100.00;102833.75;5030260;28;20038;-82
2023/09/03 05:19:51;;;;;;;45.95;21.30;;;;;;;11.22;100.00;102834.31;5030684;28;20433;-82
2023/09/03 05:22:17;;;;;;;44.78;21.60;;;;;;;11.26;100.00;102831.34;5034152;28;20413;-81
2023/09/03 05:24:42;;;;;;;43.35;20.13;;;;;;;11.28;100.00;102834.78;5033876;28;20027;-82
2023/09/03 05:27:08;;;;;;;46.22;21.60;;;;;;;11.33;100.00;102846.97;5033517;28;20105;-81
2023/09/03 05:29:34;;;;;;;43.55;21.30;;;;;;;11.38;100.00;102847.56;5001294;28;20076;-81
2023/09/03 05:31:59;;;;;;;46.45;22.92;;;;;;;11.40;100.00;102845.63;5035364;28;20056;-81
2023/09/03 05:34:25;;;;;;;47.97;22.27;;;;;;;11.42;100.00;102844.59;5034926;28;20049;-81
2023/09/03 05:36:50;;;;;;;50.10;23.95;;;;;;;11.49;100.00;102852.22;5035371;28;20033;-81
2023/09/03 05:39:16;;;;;;;46.85;22.55;;;;;;;11.55;100.00;102862.47;5034768;28;20029;-81
2023/09/03 05:41:41;;;;;;;50.85;23.50;;;;;;;11.59;100.00;102870.19;5034970;28;20072;-82
2023/09/03 05:44:09;;;;;;;49.88;22.92;;;;;;;11.63;100.00;102863.72;5035139;28;20128;-82
2023/09/03 05:46:37;;;;;;;51.13;23.17;;;;;;;11.70;100.00;102874.84;5035534;28;20082;-82
2023/09/03 05:49:03;;;;;;;48.15;22.00;;;;;;;11.77;100.00;102868.16;5035110;28;20029;-82
2023/09/03 05:51:29;;;;;;;48.63;21.55;;;;;;;11.82;100.00;102873.22;5034236;28;20079;-82
2023/09/03 05:53:54;;;;;;;46.20;21.63;;;;;;;11.87;100.00;102883.59;5017690;28;20053;-82
2023/09/03 05:56:22;;;;;;;48.60;22.48;;;;;;;11.91;100.00;102894.00;5034876;28;20492;-82
2023/09/03 05:58:50;;;;;;;44.65;21.60;;;;;;;11.95;100.00;102892.84;5033601;28;20044;-82
2023/09/03 06:01:15;;;;;;;44.17;21.17;;;;;;;11.99;100.00;102893.53;5033129;28;20032;-82
2023/09/03 06:03:43;;;;;;;42.40;20.60;;;;;;;12.02;100.00;102897.78;5034804;28;20026;-84
2023/09/03 06:06:10;;;;;;;48.67;21.98;;;;;;;12.05;100.00;102903.81;5033389;28;20029;-84
2023/09/03 06:08:37;;;;;;;44.95;20.17;;;;;;;12.13;100.00;102913.97;5033169;28;20193;-85
2023/09/03 06:11:03;;;;;;;44.85;20.58;;;;;;;12.15;100.00;102912.94;5033489;28;20132;-83
2023/09/03 06:13:30;;;;;;;51.35;22.70;;;;;;;12.23;100.00;102922.25;5034302;28;20112;-84
2023/09/03 06:15:56;;;;;;;44.70;21.15;;;;;;;12.27;100.00;102927.28;5016810;28;20180;-84
2023/09/03 06:18:23;;;;;;;42.83;20.25;;;;;;;12.34;100.00;102928.59;5032584;28;20084;-83
2023/09/03 06:20:49;;;;;;;44.88;20.25;;;;;;;12.41;100.00;102938.88;5033189;28;20038;-83
2023/09/03 06:23:18;;;;;;;41.88;20.45;;;;;;;12.48;100.00;102934.84;5032702;28;20371;-83
2023/09/03 06:25:48;;;;;;;42.63;20.15;;;;;;;12.57;100.00;102941.41;5033073;28;20130;-83
2023/09/03 06:28:15;;;;;;;39.78;20.30;;;;;;;12.63;100.00;102939.19;5032648;28;20040;-83
2023/09/03 06:30:41;;;;;;;42.83;19.75;;;;;;;12.72;100.00;102939.53;5034076;28;20025;-82
2023/09/03 06:33:07;;;;;;;35.97;19.13;;;;;;;12.80;100.00;102946.06;5032909;28;20041;-82
2023/09/03 06:35:32;;;;;;;33.10;17.70;;;;;;;12.86;100.00;102943.00;5033571;28;20036;-83
2023/09/03 06:37:58;;;;;;;34.25;17.83;;;;;;;12.94;100.00;102945.13;5033147;28;20488;-83
2023/09/03 06:40:24;;;;;;;35.17;18.33;;;;;;;13.01;100.00;102940.25;5032464;28;20057;-83
2023/09/03 06:42:53;;;;;;;34.63;18.25;;;;;;;13.09;100.00;102935.22;5016487;28;20104;-83
2023/09/03 06:45:18;;;;;;;33.20;17.67;;;;;;;13.17;100.00;102927.56;5016113;28;20095;-83
2023/09/03 06:47:46;;;;;;;31.38;17.52;;;;;;;13.25;100.00;102929.69;5034271;28;20038;-83
2023/09/03 06:50:12;;;;;;;31.38;17.42;;;;;;;13.31;100.00;102931.94;5034036;28;20033;-83
2023/09/03 06:52:38;;;;;;;29.63;16.83;;;;;;;13.37;100.00;102930.69;5031923;28;20049;-83
2023/09/03 06:55:04;;;;;;;27.85;15.88;;;;;;;13.43;100.00;102932.09;5016333;28;20045;-83
2023/09/03 06:57:31;;;;;;;31.45;16.13;;;;;;;13.47;100.00;102930.94;5032303;28;20048;-83
2023/09/03 06:59:56;;;;;;;24.98;15.57;;;;;;;13.49;100.00;102924.50;5032312;28;20053;-83
2023/09/03 07:02:22;;;;;;;30.50;15.80;;;;;;;13.53;100.00;102934.00;5031995;28;20437;-84
2023/09/03 07:04:48;;;;;;;28.52;16.13;;;;;;;13.59;100.00;102927.38;5032417;28;20039;-83
2023/09/03 07:07:13;;;;;;;27.25;15.10;;;;;;;13.66;100.00;102927.78;4999749;28;20037;-82
2023/09/03 07:09:39;;;;;;;23.90;14.82;;;;;;;13.69;100.00;102940.94;5031918;28;20439;-82
2023/09/03 07:12:05;;;;;;;29.60;15.65;;;;;;;13.74;100.00;102938.81;5031986;28;20064;-82
2023/09/03 07:14:32;;;;;;;25.67;15.85;;;;;;;13.82;100.00;102940.94;5015633;28;20041;-82
2023/09/03 07:16:57;;;;;;;25.55;14.70;;;;;;;13.89;100.00;102950.25;5032191;28;20485;-82
2023/09/03 07:19:23;;;;;;;23.95;14.95;;;;;;;13.97;100.00;102944.34;5031560;28;20036;-84
2023/09/03 07:21:48;;;;;;;25.98;15.65;;;;;;;13.97;100.00;102952.38;5015808;28;20112;-83
2023/09/03 07:24:14;;;;;;;24.73;15.02;;;;;;;14.01;100.00;102959.22;5033038;28;20531;-82
2023/09/03 07:26:39;;;;;;;26.55;15.02;;;;;;;14.07;100.00;102961.47;5031921;28;20251;-82
2023/09/03 07:29:05;;;;;;;19.95;14.13;;;;;;;14.19;100.00;102959.72;5032125;28;20159;-83
2023/09/03 07:31:31;;;;;;;21.10;14.73;;;;;;;14.28;100.00;102957.22;5015196;28;20462;-82
2023/09/03 07:33:59;;;;;;;21.65;14.43;;;;;;;14.31;100.00;102961.50;5015154;28;20034;-82
2023/09/03 07:36:24;;;;;;;23.30;14.45;;;;;;;14.35;100.00;102960.31;5031240;28;20108;-83
2023/09/03 07:38:50;;;;;;;21.85;13.68;;;;;;;14.43;100.00;102971.31;5031566;28;20175;-84
2023/09/03 07:41:15;;;;;;;19.65;13.65;;;;;;;14.58;100.00;102977.34;5031529;28;20409;-81
2023/09/03 07:43:40;;;;;;;20.83;14.25;;;;;;;14.67;100.00;102977.69;5031901;28;20398;-83
2023/09/03 07:46:06;;;;;;;18.45;13.57;;;;;;;14.81;100.00;102977.53;5031794;28;20030;-81
2023/09/03 07:48:31;;;;;;;17.58;13.02;;;;;;;14.97;100.00;102967.34;5031312;28;20462;-82
2023/09/03 07:50:57;;;;;;;17.45;12.27;;;;;;;15.13;100.00;102963.50;5031735;28;20029;-82
2023/09/03 07:53:22;;;;;;;16.70;12.07;;;;;;;15.28;100.00;102970.34;4998762;28;20049;-81
2023/09/03 07:55:48;;;;;;;15.75;12.02;;;;;;;15.42;100.00;102977.34;5014725;28;20500;-81
2023/09/03 07:58:13;;;;;;;16.10;11.15;;;;;;;15.59;100.00;102984.06;5032569;28;20048;-83
2023/09/03 08:00:40;;;;;;;15.40;11.27;;;;;;;15.75;100.00;102985.53;5031188;28;20034;-81
2023/09/03 08:03:06;;;;;;;16.95;11.80;;;;;;;15.91;100.00;102978.00;5032899;28;20041;-83
2023/09/03 08:05:31;;;;;;;13.57;10.35;;;;;;;16.02;100.00;102980.72;5014759;28;20029;-82
2023/09/03 08:07:56;;;;;;;13.43;10.60;;;;;;;16.24;100.00;102980.81;5031680;28;20033;-81
2023/09/03 08:10:22;;;;;;;13.93;10.13;;;;;;;16.66;100.00;102970.19;5032649;28;20037;-81
2023/09/03 08:12:47;;;;;;;14.25;9.75;;;;;;;17.15;100.00;102960.72;5032646;28;20532;-83
2023/09/03 08:15:14;;;;;;;13.70;9.80;;;;;;;17.43;100.00;102967.25;5032662;28;20034;-84
2023/09/03 08:17:39;;;;;;;16.38;9.98;;;;;;;17.75;100.00;102968.13;5030965;28;20053;-85
2023/09/03 08:20:05;;;;;;;11.00;8.93;;;;;;;17.96;100.00;102960.06;5032473;28;20048;-83
2023/09/03 08:22:30;;;;;;;12.13;9.25;;;;;;;18.16;100.00;102969.03;5031089;28;20112;-84
2023/09/03 08:24:55;;;;;;;13.68;8.90;;;;;;;18.31;100.00;102959.56;5032656;28;20099;-84
2023/09/03 08:27:21;;;;;;;13.68;9.10;;;;;;;18.52;100.00;102964.00;5032363;28;20112;-83
2023/09/03 08:29:47;;;;;;;10.85;8.38;;;;;;;18.69;100.00;102965.16;5031882;28;20389;-84
2023/09/03 08:32:12;;;;;;;15.68;8.88;;;;;;;18.70;100.00;102963.31;5032421;28;20036;-84
2023/09/03 08:34:37;;;;;;;9.57;8.25;;;;;;;18.81;100.00;102964.03;5032638;28;20461;-84
2023/09/03 08:37:03;;;;;;;11.32;8.43;;;;;;;18.88;100.00;102960.78;5032420;28;20033;-85
2023/09/03 08:39:28;;;;;;;11.52;7.40;;;;;;;19.01;100.00;102953.25;5032352;28;20561;-85
2023/09/03 08:41:55;;;;;;;9.70;7.78;;;;;;;19.17;100.00;102961.59;5032266;28;20033;-84
2023/09/03 08:44:32;;;;;;;12.40;7.20;;;;;;;19.44;100.00;102960.00;5032303;28;20034;-82
2023/09/03 08:47:03;;;;;;;13.77;7.60;;;;;;;19.67;100.00;102960.47;5032433;28;20113;-83
2023/09/03 08:49:31;;;;;;;8.88;6.65;;;;;;;19.99;100.00;102945.72;5032208;28;20044;-82
2023/09/03 08:51:58;;;;;;;8.85;6.75;;;;;;;20.53;100.00;102951.19;5031741;28;20130;-83
2023/09/03 08:54:24;;;;;;;9.50;6.80;;;;;;;20.98;100.00;102940.47;5031032;28;20116;-82
2023/09/03 08:56:49;;;;;;;9.07;6.80;;;;;;;21.55;100.00;102950.84;5033608;28;20033;-86
2023/09/03 08:59:15;;;;;;;9.15;6.55;;;;;;;22.29;100.00;102946.56;5018239;28;20033;-82
2023/09/03 09:01:42;;;;;;;7.75;5.80;;;;;;;23.10;100.00;102948.72;5035224;28;20057;-83
2023/09/03 09:04:07;;;;;;;7.47;5.63;;;;;;;23.80;100.00;102948.00;5035943;28;20034;-83
2023/09/03 09:06:34;;;;;;;8.70;6.20;;;;;;;24.20;100.00;102946.13;5035471;28;20030;-86
2023/09/03 09:09:00;;;;;;;8.70;5.30;;;;;;;24.56;100.00;102947.44;5036386;28;20033;-84
2023/09/03 09:11:33;;;;;;;6.82;4.97;;;;;;;24.79;100.00;102948.25;5035792;28;20083;-84
2023/09/03 09:14:00;;;;;;;5.60;4.75;;;;;;;24.65;100.00;102954.53;5035199;28;20030;-82
2023/09/03 09:16:25;;;;;;;7.30;4.63;;;;;;;24.63;100.00;102962.88;5035760;28;20513;-83
2023/09/03 09:18:51;;;;;;;6.05;3.92;;;;;;;24.63;100.00;102957.44;5035257;28;20124;-84
2023/09/03 09:21:20;;;;;;;5.90;4.20;;;;;;;24.67;100.00;102954.34;5034380;28;20073;-83
2023/09/03 09:23:46;;;;;;;6.82;3.90;;;;;;;24.85;100.00;102957.59;5035474;28;20037;-83
2023/09/03 09:26:16;;;;;;;7.70;3.78;;;;;;;24.93;85.39;102952.06;5035267;28;20428;-84
2023/09/03 09:29:02;;;;;;;4.70;3.80;;;;;;;24.96;93.99;102951.72;5035060;28;20030;-84
2023/09/03 09:31:29;;;;;;;4.97;3.70;;;;;;;25.06;94.66;102947.88;5035462;28;20113;-82
2023/09/03 09:33:54;;;;;;;4.75;3.53;;;;;;;25.12;85.49;102953.41;5034862;28;20043;-81
2023/09/03 09:36:20;;;;;;;7.28;3.10;;;;;;;25.12;97.52;102942.50;5035106;28;20029;-82
2023/09/03 09:38:45;;;;;;;4.47;3.53;;;;;;;25.10;85.18;102946.47;5017144;28;20069;-82
2023/09/03 09:41:26;;;;;;;5.97;3.85;;;;;;;25.30;95.26;102930.47;5035488;28;20440;-81
2023/09/03 09:43:53;;;;;;;6.07;4.10;;;;;;;25.71;77.15;102929.97;5034855;28;20026;-83
2023/09/03 09:46:29;;;;;;;7.32;4.00;;;;;;;26.10;84.87;102923.34;5033823;28;20033;-82
2023/09/03 09:48:59;;;;;;;5.95;4.25;;;;;;;26.13;78.51;102922.94;5034848;28;20045;-81
2023/09/03 09:51:26;;;;;;;10.38;4.10;;;;;;;26.19;87.52;102924.91;5035043;28;20477;-81
2023/09/03 09:54:00;;;;;;;7.57;4.50;;;;;;;26.08;74.80;102922.69;5033435;28;20072;-81
2023/09/03 09:56:34;;;;;;;6.30;3.83;;;;;;;26.43;91.82;102911.09;5034874;28;20046;-81
2023/09/03 09:59:00;;;;;;;4.97;3.30;;;;;;;26.63;83.92;102914.81;5034515;28;20083;-81
2023/09/03 10:01:27;;;;;;;5.28;3.88;;;;;;;26.51;74.85;102930.91;5033584;28;20037;-81
2023/09/03 10:03:53;;;;;;;4.70;3.20;;;;;;;26.60;72.78;102931.59;5033116;28;20424;-81
2023/09/03 10:06:24;;;;;;;4.20;2.70;;;;;;;26.81;80.02;102928.06;5034601;28;20039;-81
2023/09/03 10:08:51;;;;;;;5.28;3.47;;;;;;;26.43;65.27;102935.66;5034250;28;20092;-81
2023/09/03 10:11:18;;;;;;;4.30;2.78;;;;;;;26.49;81.74;102938.44;5034650;28;20079;-81
2023/09/03 10:13:44;;;;;;;4.70;3.20;;;;;;;26.40;69.97;102934.97;5034070;28;20044;-80
2023/09/03 10:16:10;;;;;;;7.32;2.90;;;;;;;26.28;83.31;102933.81;5034600;28;20042;-79
2023/09/03 10:18:43;;;;;;;7.10;2.70;;;;;;;25.96;68.32;102926.91;5034564;28;20421;-82
2023/09/03 10:21:10;;;;;;;3.30;2.90;;;;;;;25.86;73.89;102932.69;5034669;28;20037;-81
2023/09/03 10:23:43;;;;;;;5.38;2.70;;;;;;;25.93;87.62;102925.44;5034160;28;20065;-81
2023/09/03 10:26:12;;;;;;;3.55;2.40;;;;;;;25.68;72.63;102928.47;5034337;28;20362;-81
2023/09/03 10:28:41;;;;;;;5.80;2.65;;;;;;;25.83;75.32;102931.19;5034577;28;20036;-81
2023/09/03 10:31:08;;;;;;;6.03;2.95;;;;;;;25.84;82.99;102934.75;5033816;28;20478;-79
2023/09/03 10:33:35;;;;;;;4.90;2.67;;;;;;;26.16;75.95;102927.19;5035355;28;20033;-81
2023/09/03 10:36:13;;;;;;;4.00;2.47;;;;;;;26.33;68.27;102935.97;5033601;28;20036;-80
2023/09/03 10:38:39;;;;;;;2.88;2.35;;;;;;;26.35;70.83;102933.91;5034381;28;20033;-80
2023/09/03 10:41:22;;;;;;;2.30;2.10;;;;;;;25.99;62.42;102927.44;5033706;28;20457;-80
2023/09/03 10:43:52;;;;;;;3.92;2.30;;;;;;;25.73;64.14;102937.97;5032539;28;20041;-82
2023/09/03 10:46:18;;;;;;;5.90;2.30;;;;;;;25.62;60.47;102936.56;5034255;28;20029;-80
2023/09/03 10:48:54;;;;;;;3.55;2.00;;;;;;;25.66;70.19;102937.88;5033915;28;20148;-80
2023/09/03 10:51:32;;;;;;;3.38;1.90;;;;;;;25.77;74.29;102944.75;5033738;28;20041;-81
2023/09/03 10:54:14;;;;;;;5.38;2.30;;;;;;;25.69;64.35;102943.81;5032476;28;20132;-81
2023/09/03 10:57:05;;;;;;;3.50;2.30;;;;;;;25.99;66.00;102949.25;5033884;28;20033;-80
2023/09/03 10:59:58;;;;;;;4.43;2.63;;;;;;;26.28;78.09;102952.09;5033705;28;20370;-80
2023/09/03 11:02:25;;;;;;;6.07;2.30;;;;;;;26.32;75.18;102943.31;5034427;28;20037;-80
2023/09/03 11:05:10;;;;;;;3.88;2.45;;;;;;;26.26;63.88;102935.91;5033136;28;20045;-82
2023/09/03 11:07:35;;;;;;;5.47;2.88;;;;;;;25.90;65.24;102944.91;5033735;28;20033;-81
2023/09/03 11:10:19;;;;;;;2.88;2.20;;;;;;;26.01;72.42;102943.59;5032514;28;20040;-83